Cincinnati, Ohio
Traffic Map
Current Weather Conditions
Cincinnati, Ohio
Few Clouds
Few Clouds
62°
Feels Like: 62°
Wind Chill: 62° Ceiling: Unl
Heat Index: 62° Visibility: 10mi
Dew Point: 61° Wind: 0mph
Humidity: 96% Direction: ° ()
Pressure: 29.99in Gusts: 0mph
Raw Report DataKLUK 230953Z AUTO 00000KT 10SM FEW046 17/16 A2999 RMK AO2 SLP151 T01670161
Traffic Incident Summary
Active as of:
Severity:
Category:
InformationThere was an issue retrieving the traffic information for this location. Please try a different location or try again shortly.
Advertisements